createdAt,value
2022-09-10T00:00:21.349Z,3.00
2022-09-10T00:01:25.265Z,3.90
2022-09-10T00:02:27.497Z,2.20
2022-09-10T00:03:29.767Z,2.50
2022-09-10T00:04:32.231Z,3.90
2022-09-10T00:05:42.351Z,2.10
2022-09-10T00:06:44.786Z,2.90
2022-09-10T00:07:46.894Z,3.00
2022-09-10T00:08:49.411Z,2.60
2022-09-10T00:09:52.204Z,2.30
2022-09-10T00:10:54.576Z,4.10
2022-09-10T00:11:56.799Z,3.40
2022-09-10T00:12:58.890Z,2.30
2022-09-10T00:14:02.256Z,3.70
2022-09-10T00:15:06.080Z,2.70
2022-09-10T00:16:10.446Z,2.90
2022-09-10T00:17:13.564Z,2.90
2022-09-10T00:18:17.137Z,3.10
2022-09-10T00:19:19.270Z,3.20
2022-09-10T00:20:22.447Z,2.80
2022-09-10T00:21:24.543Z,2.70
2022-09-10T00:22:26.742Z,3.30
2022-09-10T00:23:29.175Z,3.90
2022-09-10T00:24:31.266Z,4.00
2022-09-10T00:25:33.353Z,3.50
2022-09-10T00:26:36.738Z,2.40
2022-09-10T00:27:38.850Z,3.50
2022-09-10T00:28:41.035Z,0.50
2022-09-10T00:29:43.107Z,3.80
2022-09-10T00:30:47.294Z,2.90
2022-09-10T00:31:49.415Z,3.70
2022-09-10T00:32:51.615Z,3.00
2022-09-10T00:33:53.672Z,3.00
2022-09-10T00:34:56.789Z,2.90
2022-09-10T00:35:58.918Z,2.70
2022-09-10T00:37:01.123Z,2.90
2022-09-10T00:38:03.935Z,2.64
2022-09-10T00:40:26.225Z,3.00
2022-09-10T00:41:29.258Z,2.90
2022-09-10T00:42:31.381Z,2.50
2022-09-10T00:44:00.631Z,2.60
2022-09-10T00:45:03.724Z,2.50
2022-09-10T00:46:08.413Z,2.50
2022-09-10T00:47:22.949Z,4.00
2022-09-10T00:48:28.018Z,3.20
2022-09-10T00:49:36.928Z,1.60
2022-09-10T00:50:40.914Z,3.50
2022-09-10T00:51:44.206Z,2.40
2022-09-10T00:52:48.734Z,2.30
2022-09-10T00:53:51.057Z,2.70
2022-09-10T00:54:53.133Z,2.80
2022-09-10T00:55:57.237Z,2.60
2022-09-10T00:57:02.652Z,2.40
2022-09-10T00:58:05.875Z,1.90
2022-09-10T00:59:08.032Z,2.60
2022-09-10T01:00:12.109Z,2.60
2022-09-10T01:01:15.386Z,3.30
2022-09-10T01:02:18.274Z,2.73
2022-09-10T01:03:24.867Z,0.00
2022-09-10T01:04:25.613Z,3.00
2022-09-10T01:05:29.951Z,2.30
2022-09-10T01:06:32.863Z,2.60
2022-09-10T01:07:35.307Z,1.70
2022-09-10T01:08:38.253Z,2.60
2022-09-10T01:09:40.737Z,1.80
2022-09-10T01:11:02.210Z,2.30
2022-09-10T01:12:34.316Z,3.70
2022-09-10T01:13:54.274Z,1.80
2022-09-10T01:16:37.711Z,2.80
2022-09-10T01:17:55.955Z,2.70
2022-09-10T01:19:14.790Z,2.60
2022-09-10T01:20:55.578Z,0.00
2022-09-10T01:22:07.042Z,2.40
2022-09-10T01:23:46.988Z,3.40
2022-09-10T01:24:54.932Z,2.10
2022-09-10T01:27:43.054Z,3.20
2022-09-10T01:28:59.078Z,2.20
2022-09-10T01:30:10.478Z,1.70
2022-09-10T01:32:47.375Z,2.70
2022-09-10T01:33:53.394Z,2.80
2022-09-10T01:35:03.338Z,2.30
2022-09-10T01:36:08.648Z,2.70
2022-09-10T01:37:18.363Z,2.20
2022-09-10T01:38:24.837Z,2.50
2022-09-10T01:39:27.920Z,1.80
2022-09-10T01:40:31.590Z,2.10
2022-09-10T01:41:39.182Z,2.00
2022-09-10T01:42:42.509Z,1.80
2022-09-10T01:43:45.481Z,2.70
2022-09-10T01:44:49.699Z,1.60
2022-09-10T01:46:14.437Z,2.20
2022-09-10T01:47:23.202Z,2.00
2022-09-10T01:48:41.078Z,1.60
2022-09-10T01:50:05.436Z,2.20
2022-09-10T01:51:17.410Z,2.70
2022-09-10T01:52:40.290Z,2.00
2022-09-10T01:53:52.505Z,1.90
2022-09-10T01:55:07.129Z,2.20
2022-09-10T01:56:26.995Z,2.90
2022-09-10T01:58:50.289Z,2.50
2022-09-10T02:00:08.969Z,2.30
2022-09-10T02:03:05.788Z,2.00
2022-09-10T02:04:09.048Z,1.40
2022-09-10T02:05:12.026Z,2.70
2022-09-10T02:06:19.430Z,2.00
2022-09-10T02:07:23.560Z,1.80
2022-09-10T02:09:41.308Z,2.20
2022-09-10T02:10:52.658Z,1.27
2022-09-10T02:11:55.897Z,1.80
2022-09-10T02:13:14.942Z,1.90
2022-09-10T02:14:19.580Z,1.60
2022-09-10T02:15:40.165Z,2.00
2022-09-10T02:16:56.468Z,2.30
2022-09-10T02:17:59.236Z,2.80
2022-09-10T02:19:02.423Z,2.50
2022-09-10T02:21:20.267Z,1.70
2022-09-10T02:22:23.171Z,1.90
2022-09-10T02:24:41.275Z,1.90
2022-09-10T02:25:43.361Z,1.10
2022-09-10T02:26:45.634Z,2.20
2022-09-10T02:27:48.110Z,2.20
2022-09-10T02:28:50.678Z,1.70
2022-09-10T02:29:53.016Z,2.00
2022-09-10T02:30:56.245Z,1.60
2022-09-10T02:31:59.541Z,1.50
2022-09-10T02:33:01.746Z,1.50
2022-09-10T02:34:04.981Z,1.70
2022-09-10T02:35:07.844Z,1.80
2022-09-10T02:36:10.493Z,2.30
2022-09-10T02:37:12.894Z,2.10
2022-09-10T02:38:16.477Z,1.45
2022-09-10T02:39:21.080Z,1.70
2022-09-10T02:40:24.302Z,1.70
2022-09-10T02:41:26.891Z,1.64
2022-09-10T02:42:29.735Z,1.50
2022-09-10T02:43:31.811Z,1.80
2022-09-10T02:44:36.893Z,1.70
2022-09-10T02:45:39.737Z,1.20
2022-09-10T02:46:43.137Z,1.70
2022-09-10T02:47:45.812Z,2.10
2022-09-10T02:48:50.646Z,1.70
2022-09-10T02:49:52.802Z,2.10
2022-09-10T02:50:55.136Z,1.60
2022-09-10T02:51:57.419Z,1.50
2022-09-10T02:52:59.623Z,2.20
2022-09-10T02:54:02.298Z,1.70
2022-09-10T02:55:06.355Z,1.70
2022-09-10T02:56:09.387Z,1.40
2022-09-10T02:57:11.770Z,1.20
2022-09-10T02:58:14.742Z,2.20
2022-09-10T02:59:17.230Z,1.90
2022-09-10T03:00:20.267Z,0.90
2022-09-10T03:01:23.158Z,1.64
2022-09-10T03:02:27.237Z,1.20
2022-09-10T03:03:29.827Z,1.40
2022-09-10T03:04:32.510Z,1.20
2022-09-10T03:05:38.446Z,2.10
2022-09-10T03:06:40.877Z,1.90
2022-09-10T03:07:43.441Z,2.00
2022-09-10T03:08:46.020Z,1.20
2022-09-10T03:09:48.901Z,1.30
2022-09-10T03:10:51.206Z,1.80
2022-09-10T03:11:53.614Z,1.00
2022-09-10T03:12:56.172Z,1.64
2022-09-10T03:13:59.333Z,1.50
2022-09-10T03:15:02.026Z,2.00
2022-09-10T03:16:05.004Z,1.64
2022-09-10T03:17:08.487Z,1.70
2022-09-10T03:18:11.467Z,0.80
2022-09-10T03:19:14.875Z,2.00
2022-09-10T03:20:17.533Z,1.00
2022-09-10T03:21:22.057Z,1.30
2022-09-10T03:22:24.486Z,1.50
2022-09-10T03:23:27.698Z,1.45
2022-09-10T03:24:30.801Z,1.10
2022-09-10T03:25:33.080Z,2.30
2022-09-10T03:26:35.354Z,1.60
2022-09-10T03:27:39.362Z,1.40
2022-09-10T03:28:42.685Z,1.40
2022-09-10T03:29:45.836Z,1.80
2022-09-10T03:30:48.726Z,1.73
2022-09-10T03:31:52.209Z,2.00
2022-09-10T03:32:55.535Z,1.60
2022-09-10T03:33:57.997Z,1.82
2022-09-10T03:35:00.823Z,1.45
2022-09-10T03:36:04.240Z,0.70
2022-09-10T03:37:07.277Z,1.70
2022-09-10T03:38:10.243Z,1.60
2022-09-10T03:39:13.797Z,1.80
2022-09-10T03:40:17.008Z,1.80
2022-09-10T03:41:19.825Z,2.18
2022-09-10T03:42:22.709Z,1.09
2022-09-10T03:43:26.116Z,1.80
2022-09-10T03:44:28.477Z,0.80
2022-09-10T03:45:31.624Z,1.80
2022-09-10T03:46:34.974Z,1.60
2022-09-10T03:47:38.466Z,1.40
2022-09-10T03:48:40.912Z,1.80
2022-09-10T03:49:43.603Z,1.09
2022-09-10T03:50:46.510Z,1.70
2022-09-10T03:51:51.431Z,1.40
2022-09-10T03:52:54.149Z,1.00
2022-09-10T03:53:56.594Z,1.82
2022-09-10T03:54:59.898Z,1.00
2022-09-10T03:56:03.137Z,1.30
2022-09-10T03:57:05.432Z,1.30
2022-09-10T03:58:08.058Z,2.00
2022-09-10T03:59:10.279Z,1.70
2022-09-10T04:00:14.067Z,1.80
2022-09-10T04:01:21.586Z,1.30
2022-09-10T04:02:24.914Z,1.80
2022-09-10T04:03:27.907Z,1.20
2022-09-10T04:04:30.070Z,1.00
2022-09-10T04:05:32.796Z,1.50
2022-09-10T04:06:35.245Z,1.36
2022-09-10T04:07:37.481Z,1.70
2022-09-10T04:08:39.804Z,2.10
2022-09-10T04:09:44.535Z,1.00
2022-09-10T04:10:47.711Z,1.20
2022-09-10T04:11:51.034Z,1.10
2022-09-10T04:12:55.057Z,0.90
2022-09-10T04:13:58.134Z,1.60
2022-09-10T04:15:01.773Z,1.60
2022-09-10T04:16:05.789Z,2.10
2022-09-10T04:17:08.503Z,1.50
2022-09-10T04:18:11.224Z,1.18
2022-09-10T04:19:13.423Z,1.00
2022-09-10T04:20:19.464Z,1.45
2022-09-10T04:21:22.907Z,1.40
2022-09-10T04:22:25.594Z,1.40
2022-09-10T04:23:28.872Z,1.10
2022-09-10T04:24:31.100Z,0.90
2022-09-10T04:25:33.417Z,1.80
2022-09-10T04:26:35.688Z,1.80
2022-09-10T04:27:38.293Z,1.10
2022-09-10T04:28:40.822Z,1.73
2022-09-10T04:29:43.721Z,1.91
2022-09-10T04:30:47.367Z,1.30
2022-09-10T04:31:50.392Z,1.00
2022-09-10T04:32:54.308Z,1.70
2022-09-10T04:33:56.671Z,1.80
2022-09-10T04:35:00.777Z,1.40
2022-09-10T04:36:07.199Z,1.20
2022-09-10T04:37:12.717Z,2.00
2022-09-10T04:38:15.988Z,2.80
2022-09-10T04:39:20.018Z,3.20
2022-09-10T04:40:24.381Z,3.30
2022-09-10T04:41:26.555Z,1.90
2022-09-10T04:42:29.692Z,2.00
2022-09-10T04:43:31.871Z,3.00
2022-09-10T04:44:35.213Z,4.00
2022-09-10T04:45:37.723Z,2.80
2022-09-10T04:46:40.370Z,4.00
2022-09-10T04:47:44.881Z,3.50
2022-09-10T04:48:48.385Z,4.40
2022-09-10T04:49:52.384Z,4.80
2022-09-10T04:51:15.132Z,5.30
2022-09-10T04:52:00.991Z,3.30
2022-09-10T04:53:03.242Z,5.10
2022-09-10T04:54:06.084Z,4.30
2022-09-10T04:55:10.375Z,4.40
2022-09-10T04:56:13.836Z,4.50
2022-09-10T04:57:19.477Z,4.30
2022-09-10T04:58:22.161Z,4.70
2022-09-10T04:59:24.914Z,4.18
2022-09-10T05:00:27.392Z,4.80
2022-09-10T05:01:29.709Z,3.70
2022-09-10T05:02:32.030Z,5.00
2022-09-10T05:03:34.366Z,5.20
2022-09-10T05:04:37.237Z,4.70
2022-09-10T05:05:40.600Z,5.10
2022-09-10T05:06:43.501Z,5.36
2022-09-10T05:07:46.449Z,4.40
2022-09-10T05:08:49.206Z,5.40
2022-09-10T05:09:52.674Z,5.50
2022-09-10T05:10:55.598Z,5.09
2022-09-10T05:11:58.031Z,6.36
2022-09-10T05:13:01.001Z,5.00
2022-09-10T05:14:04.412Z,4.50
2022-09-10T05:15:09.623Z,4.70
2022-09-10T05:16:12.793Z,5.40
2022-09-10T05:17:15.803Z,5.90
2022-09-10T05:18:18.026Z,4.90
2022-09-10T05:19:21.209Z,4.20
2022-09-10T05:20:32.136Z,4.70
2022-09-10T05:21:35.907Z,5.50
2022-09-10T05:22:40.660Z,5.40
2022-09-10T05:23:42.741Z,4.90
2022-09-10T05:24:45.685Z,5.00
2022-09-10T05:25:48.490Z,4.50
2022-09-10T05:26:52.005Z,5.30
2022-09-10T05:27:55.129Z,4.70
2022-09-10T05:28:58.156Z,5.30
2022-09-10T05:30:00.786Z,4.00
2022-09-10T05:31:03.144Z,5.80
2022-09-10T05:32:05.731Z,6.50
2022-09-10T05:33:08.723Z,7.00
2022-09-10T05:34:12.047Z,5.40
2022-09-10T05:35:15.179Z,0.20
2022-09-10T05:36:19.537Z,5.60
2022-09-10T05:37:22.323Z,4.50
2022-09-10T05:38:25.270Z,3.90
2022-09-10T05:39:28.200Z,6.60
2022-09-10T05:40:30.567Z,6.64
2022-09-10T05:41:33.409Z,5.20
2022-09-10T05:42:35.835Z,5.60
2022-09-10T05:43:39.617Z,4.70
2022-09-10T05:44:41.828Z,5.30
2022-09-10T05:45:46.641Z,5.60
2022-09-10T05:48:04.018Z,5.70
2022-09-10T05:49:06.668Z,6.60
2022-09-10T05:50:09.444Z,6.30
2022-09-10T05:51:12.776Z,5.60
2022-09-10T05:52:16.233Z,5.10
2022-09-10T05:53:19.497Z,5.10
2022-09-10T05:54:23.521Z,6.50
2022-09-10T05:55:25.906Z,4.70
2022-09-10T05:56:28.561Z,5.09
2022-09-10T05:57:31.164Z,7.10
2022-09-10T05:58:33.458Z,4.00
2022-09-10T05:59:35.763Z,4.60
2022-09-10T06:00:38.793Z,6.50
2022-09-10T06:01:41.263Z,6.09
2022-09-10T06:02:43.522Z,5.10
2022-09-10T06:03:47.826Z,5.60
2022-09-10T06:04:50.007Z,5.80
2022-09-10T06:05:52.413Z,5.10
2022-09-10T06:06:59.406Z,4.70
2022-09-10T06:08:07.899Z,6.09
2022-09-10T06:09:08.330Z,4.40
2022-09-10T06:10:29.996Z,6.10
2022-09-10T06:11:33.164Z,6.00
2022-09-10T06:12:35.949Z,6.00
2022-09-10T06:13:38.583Z,5.64
2022-09-10T06:14:41.878Z,6.50
2022-09-10T06:15:44.052Z,5.80
2022-09-10T06:16:47.145Z,2.10
2022-09-10T06:17:49.854Z,5.36
2022-09-10T06:18:53.475Z,5.60
2022-09-10T06:19:57.088Z,5.80
2022-09-10T06:21:07.407Z,3.50
2022-09-10T06:22:10.532Z,5.40
2022-09-10T06:23:15.480Z,5.80
2022-09-10T06:24:18.371Z,3.20
2022-09-10T06:25:21.455Z,5.20
2022-09-10T06:26:24.202Z,5.50
2022-09-10T06:27:28.235Z,5.60
2022-09-10T06:28:32.016Z,4.40
2022-09-10T06:29:35.479Z,5.50
2022-09-10T06:30:38.366Z,5.60
2022-09-10T06:31:40.853Z,4.70
2022-09-10T06:32:43.699Z,6.30
2022-09-10T06:33:47.326Z,5.70
2022-09-10T06:34:51.324Z,6.40
2022-09-10T06:35:54.863Z,5.80
2022-09-10T06:36:58.585Z,4.90
2022-09-10T06:38:04.210Z,5.40
2022-09-10T06:39:09.796Z,5.90
2022-09-10T06:40:14.744Z,4.80
2022-09-10T06:41:18.483Z,5.30
2022-09-10T06:42:25.566Z,5.90
2022-09-10T06:43:49.738Z,5.40
2022-09-10T06:44:55.066Z,5.70
2022-09-10T06:46:04.986Z,5.60
2022-09-10T06:48:12.756Z,6.10
2022-09-10T06:48:47.807Z,7.00
2022-09-10T06:49:35.670Z,6.70
2022-09-10T06:50:39.831Z,5.40
2022-09-10T06:51:43.053Z,6.30
2022-09-10T06:52:46.021Z,6.30
2022-09-10T06:53:49.792Z,7.70
2022-09-10T06:54:54.044Z,5.80
2022-09-10T06:56:00.386Z,5.50
2022-09-10T06:57:04.509Z,6.80
2022-09-10T06:58:07.942Z,6.10
2022-09-10T06:59:13.301Z,5.60
2022-09-10T07:00:19.310Z,5.80
2022-09-10T07:01:23.512Z,7.30
2022-09-10T07:02:27.624Z,7.20
2022-09-10T07:03:30.969Z,8.50
2022-09-10T07:04:33.949Z,7.10
2022-09-10T07:05:37.028Z,8.20
2022-09-10T07:06:39.552Z,8.90
2022-09-10T07:07:43.598Z,7.70
2022-09-10T07:08:47.983Z,9.40
2022-09-10T07:09:51.209Z,7.60
2022-09-10T07:10:57.939Z,8.10
2022-09-10T07:12:01.327Z,5.80
2022-09-10T07:13:05.732Z,7.50
2022-09-10T07:14:12.574Z,9.20
2022-09-10T07:15:14.807Z,9.60
2022-09-10T07:16:23.872Z,8.73
2022-09-10T07:17:31.119Z,5.00
2022-09-10T07:18:30.281Z,8.40
2022-09-10T07:19:32.462Z,8.10
2022-09-10T07:20:35.100Z,8.90
2022-09-10T07:21:38.553Z,8.00
2022-09-10T07:22:42.900Z,8.70
2022-09-10T07:23:46.620Z,9.30
2022-09-10T07:24:49.487Z,7.40
2022-09-10T07:25:53.544Z,8.40
2022-09-10T07:27:00.896Z,9.10
2022-09-10T07:28:04.662Z,8.60
2022-09-10T07:29:09.250Z,7.90
2022-09-10T07:30:15.130Z,8.40
2022-09-10T07:31:19.370Z,8.80
2022-09-10T07:32:23.513Z,9.20
2022-09-10T07:33:27.540Z,8.20
2022-09-10T07:34:30.241Z,7.60
2022-09-10T07:35:35.587Z,9.30
2022-09-10T07:36:37.799Z,8.30
2022-09-10T07:37:40.935Z,8.20
2022-09-10T07:38:43.775Z,10.50
2022-09-10T07:39:46.031Z,8.40
2022-09-10T07:40:48.983Z,8.90
2022-09-10T07:41:53.230Z,8.10
2022-09-10T07:42:57.240Z,7.00
2022-09-10T07:44:01.129Z,8.00
2022-09-10T07:45:06.531Z,7.20
2022-09-10T07:46:11.713Z,8.60
2022-09-10T07:47:14.472Z,9.20
2022-09-10T07:48:17.208Z,9.00
2022-09-10T07:49:20.569Z,9.20
2022-09-10T07:50:27.241Z,7.90
2022-09-10T07:51:30.092Z,8.80
2022-09-10T07:52:35.208Z,9.60
2022-09-10T07:53:38.330Z,8.40
2022-09-10T07:54:41.134Z,9.00
2022-09-10T07:55:45.550Z,7.80
2022-09-10T07:56:49.581Z,8.00
2022-09-10T07:57:58.360Z,8.70
2022-09-10T07:59:00.575Z,7.10
2022-09-10T08:00:06.666Z,7.90
2022-09-10T08:01:11.556Z,7.70
2022-09-10T08:02:15.429Z,10.20
2022-09-10T08:03:19.502Z,8.90
2022-09-10T08:04:23.418Z,8.90
2022-09-10T08:05:26.336Z,8.30
2022-09-10T08:06:29.752Z,8.36
2022-09-10T08:07:32.077Z,9.20
2022-09-10T08:08:37.596Z,8.40
2022-09-10T08:09:41.297Z,10.50
2022-09-10T08:10:45.270Z,8.20
2022-09-10T08:11:50.319Z,9.30
2022-09-10T08:12:53.673Z,8.40
2022-09-10T08:13:56.704Z,6.10
2022-09-10T08:15:01.969Z,9.60
2022-09-10T08:17:21.616Z,9.80
2022-09-10T08:18:25.025Z,9.18
2022-09-10T08:19:27.667Z,8.30
2022-09-10T08:20:29.984Z,9.50
2022-09-10T08:21:32.950Z,8.00
2022-09-10T08:22:36.530Z,8.50
2022-09-10T08:23:40.812Z,10.00
2022-09-10T08:24:43.275Z,9.30
2022-09-10T08:25:50.016Z,8.00
2022-09-10T08:26:52.457Z,8.30
2022-09-10T08:27:55.479Z,9.80
2022-09-10T08:29:00.108Z,9.70
2022-09-10T08:30:03.687Z,10.10
2022-09-10T08:31:10.320Z,9.40
2022-09-10T08:32:15.988Z,8.80
2022-09-10T08:33:19.707Z,8.40
2022-09-10T08:34:21.983Z,8.10
2022-09-10T08:35:26.536Z,8.20
2022-09-10T08:36:29.081Z,8.20
2022-09-10T08:37:31.666Z,8.40
2022-09-10T08:38:37.792Z,9.90
2022-09-10T08:39:41.351Z,8.20
2022-09-10T08:40:44.988Z,9.70
2022-09-10T08:41:58.826Z,8.10
2022-09-10T08:43:01.450Z,8.20
2022-09-10T08:44:08.520Z,8.90
2022-09-10T08:46:53.145Z,4.50
2022-09-10T08:47:58.971Z,8.90
2022-09-10T08:49:17.464Z,7.80
2022-09-10T08:50:43.773Z,8.10
2022-09-10T08:51:52.344Z,7.80
2022-09-10T08:54:24.595Z,9.10
2022-09-10T08:57:01.400Z,7.30
2022-09-10T08:58:13.823Z,10.11
2022-09-10T08:59:37.230Z,10.40
2022-09-10T09:00:41.290Z,8.30
2022-09-10T09:01:49.629Z,8.60
2022-09-10T09:03:07.641Z,14.50
2022-09-10T09:05:30.642Z,7.70
2022-09-10T09:06:50.663Z,6.70
2022-09-10T09:07:55.920Z,10.20
2022-09-10T09:08:59.276Z,10.00
2022-09-10T09:10:05.253Z,7.60
2022-09-10T09:11:24.558Z,7.20
2022-09-10T09:12:39.530Z,9.00
2022-09-10T09:14:07.487Z,9.90
2022-09-10T09:15:19.697Z,8.10
2022-09-10T09:18:13.225Z,8.70
2022-09-10T09:19:34.217Z,8.00
2022-09-10T09:22:17.754Z,7.40
2022-09-10T09:23:29.334Z,7.50
2022-09-10T09:24:52.496Z,8.80
2022-09-10T09:26:02.913Z,7.60
2022-09-10T09:27:08.563Z,7.20
2022-09-10T09:29:34.476Z,9.00
2022-09-10T09:30:41.175Z,7.20
2022-09-10T09:31:46.868Z,6.70
2022-09-10T09:32:49.403Z,7.00
2022-09-10T09:33:54.528Z,7.27
2022-09-10T09:35:18.234Z,8.90
2022-09-10T09:36:26.113Z,7.00
2022-09-10T09:37:29.254Z,7.80
2022-09-10T09:38:36.143Z,7.00
2022-09-10T09:39:46.927Z,9.10
2022-09-10T09:42:31.121Z,8.10
2022-09-10T09:43:43.377Z,4.70
2022-09-10T09:44:57.271Z,6.90
2022-09-10T09:46:00.810Z,8.60
2022-09-10T09:47:03.862Z,6.27
2022-09-10T09:48:06.695Z,8.50
2022-09-10T09:49:10.946Z,7.00
2022-09-10T09:50:13.638Z,6.10
2022-09-10T09:51:17.211Z,2.70
2022-09-10T09:52:23.465Z,6.90
2022-09-10T09:53:26.990Z,8.30
2022-09-10T09:55:50.339Z,7.70
2022-09-10T09:56:54.113Z,7.60
2022-09-10T09:59:35.399Z,6.30
2022-09-10T10:00:39.432Z,9.20
2022-09-10T10:01:41.880Z,7.70
2022-09-10T10:02:44.291Z,7.20
2022-09-10T10:03:53.139Z,7.60
2022-09-10T10:06:13.911Z,7.40
2022-09-10T10:07:15.995Z,6.50
2022-09-10T10:09:41.980Z,8.10
2022-09-10T10:10:45.849Z,7.40
2022-09-10T10:13:13.360Z,8.20
2022-09-10T10:15:39.334Z,7.70
2022-09-10T10:16:42.361Z,6.70
2022-09-10T10:17:44.429Z,5.30
2022-09-10T10:18:47.536Z,6.20
2022-09-10T10:20:05.031Z,7.30
2022-09-10T10:21:29.755Z,8.00
2022-09-10T10:22:32.080Z,8.10
2022-09-10T10:23:36.820Z,6.30
2022-09-10T10:24:39.000Z,7.90
2022-09-10T10:25:42.367Z,7.90
2022-09-10T10:26:44.689Z,7.90
2022-09-10T10:27:47.807Z,6.70
2022-09-10T10:28:51.837Z,8.70
2022-09-10T10:29:59.597Z,7.30
2022-09-10T10:31:02.508Z,9.30
2022-09-10T10:32:05.973Z,9.27
2022-09-10T10:33:11.273Z,9.10
2022-09-10T10:34:33.911Z,8.90
2022-09-10T10:35:50.104Z,9.00
2022-09-10T10:37:15.238Z,9.20
2022-09-10T10:38:28.714Z,13.50
2022-09-10T10:39:51.029Z,12.10
2022-09-10T10:41:21.849Z,11.00
2022-09-10T10:42:36.711Z,13.00
2022-09-10T10:43:51.541Z,12.20
2022-09-10T10:45:14.228Z,13.10
2022-09-10T10:47:51.741Z,11.20
2022-09-10T10:49:06.445Z,12.90
2022-09-10T10:50:19.484Z,13.00
2022-09-10T10:51:49.974Z,12.40
2022-09-10T10:53:12.484Z,11.70
2022-09-10T10:54:30.673Z,12.30
2022-09-10T10:55:45.872Z,12.90
2022-09-10T10:57:09.502Z,12.20
2022-09-10T10:58:21.218Z,13.50
2022-09-10T10:59:36.753Z,12.00
2022-09-10T11:00:55.305Z,13.30
2022-09-10T11:02:05.287Z,17.50
2022-09-10T11:03:14.526Z,18.80
2022-09-10T11:04:20.433Z,14.70
2022-09-10T11:05:30.978Z,15.50
2022-09-10T11:06:38.016Z,17.60
2022-09-10T11:07:40.606Z,19.10
2022-09-10T11:08:48.225Z,17.70
2022-09-10T11:10:20.003Z,18.40
2022-09-10T11:11:26.000Z,19.80
2022-09-10T11:12:33.878Z,17.00
2022-09-10T11:13:42.147Z,19.20
2022-09-10T11:14:50.960Z,21.00
2022-09-10T11:17:37.748Z,21.40
2022-09-10T11:18:55.890Z,21.80
2022-09-10T11:20:27.405Z,18.50
2022-09-10T11:21:27.648Z,16.60
2022-09-10T11:22:33.830Z,20.10
2022-09-10T11:24:01.028Z,20.40
2022-09-10T11:25:12.955Z,23.20
2022-09-10T11:26:26.946Z,24.20
2022-09-10T11:29:17.476Z,28.60
2022-09-10T11:30:21.303Z,31.40
2022-09-10T11:31:31.990Z,32.60
2022-09-10T11:32:55.069Z,32.60
2022-09-10T11:34:01.069Z,33.50
2022-09-10T11:35:24.930Z,34.90
2022-09-10T11:36:46.543Z,34.50
2022-09-10T11:39:18.595Z,32.30
2022-09-10T11:41:57.282Z,29.40
2022-09-10T11:43:09.383Z,28.00
2022-09-10T11:44:36.597Z,28.70
2022-09-10T11:45:48.470Z,28.50
2022-09-10T11:46:57.530Z,29.60
2022-09-10T11:48:24.265Z,30.50
2022-09-10T11:49:49.937Z,27.10
2022-09-10T11:51:05.268Z,27.70
2022-09-10T11:52:08.736Z,28.10
2022-09-10T11:53:14.206Z,28.20
2022-09-10T11:55:59.405Z,22.50
2022-09-10T11:57:14.681Z,26.60
2022-09-10T12:00:05.435Z,25.40
2022-09-10T12:02:50.490Z,23.50
2022-09-10T12:05:23.183Z,21.50
2022-09-10T12:07:03.085Z,23.30
2022-09-10T12:08:27.449Z,23.50
2022-09-10T12:11:12.411Z,19.90
2022-09-10T12:13:41.246Z,23.20
2022-09-10T12:14:44.689Z,23.80
2022-09-10T12:15:53.607Z,22.80
2022-09-10T12:17:02.983Z,22.70
2022-09-10T12:18:14.961Z,22.10
2022-09-10T12:19:28.799Z,21.90
2022-09-10T12:20:37.262Z,19.90
2022-09-10T12:21:46.938Z,19.50
2022-09-10T12:22:51.865Z,20.10
2022-09-10T12:23:54.833Z,19.60
2022-09-10T12:25:01.978Z,20.50
2022-09-10T12:26:13.453Z,19.70
2022-09-10T12:27:19.591Z,14.50
2022-09-10T12:28:43.402Z,19.50
2022-09-10T12:29:47.332Z,17.10
2022-09-10T12:31:00.467Z,13.09
2022-09-10T12:32:15.685Z,16.90
2022-09-10T12:33:22.652Z,16.30
2022-09-10T12:34:25.065Z,17.80
2022-09-10T12:35:34.620Z,17.10
2022-09-10T12:36:40.892Z,16.00
2022-09-10T12:37:43.465Z,18.10
2022-09-10T12:38:57.656Z,16.00
2022-09-10T12:40:26.565Z,17.90
2022-09-10T12:41:33.861Z,17.70
2022-09-10T12:42:36.035Z,16.90
2022-09-10T12:43:43.315Z,14.00
2022-09-10T12:44:45.826Z,17.30
2022-09-10T12:46:05.492Z,15.90
2022-09-10T12:47:37.112Z,12.80
2022-09-10T12:48:51.510Z,18.30
2022-09-10T12:49:58.060Z,19.10
2022-09-10T12:51:01.410Z,16.50
2022-09-10T12:52:03.762Z,19.10
2022-09-10T12:53:16.333Z,17.00
2022-09-10T12:54:45.991Z,15.80
2022-09-10T12:57:26.009Z,19.70
2022-09-10T13:00:11.550Z,18.30
2022-09-10T13:01:27.925Z,18.80
2022-09-10T13:02:35.530Z,17.90
2022-09-10T13:03:41.437Z,17.50
2022-09-10T13:04:44.043Z,19.00
2022-09-10T13:05:51.528Z,19.30
2022-09-10T13:08:18.877Z,16.60
2022-09-10T13:09:23.144Z,13.30
2022-09-10T13:10:28.004Z,17.70
2022-09-10T13:11:33.006Z,20.00
2022-09-10T13:12:35.201Z,17.70
2022-09-10T13:13:50.441Z,17.80
2022-09-10T13:14:53.382Z,15.80
2022-09-10T13:15:55.641Z,16.50
2022-09-10T13:16:58.299Z,17.70
2022-09-10T13:18:10.655Z,17.90
2022-09-10T13:19:16.728Z,16.50
2022-09-10T13:20:27.158Z,16.30
2022-09-10T13:21:34.033Z,16.50
2022-09-10T13:22:56.514Z,16.80
2022-09-10T13:23:58.803Z,15.60
2022-09-10T13:25:03.176Z,16.30
2022-09-10T13:26:33.335Z,16.10
2022-09-10T13:27:38.147Z,15.50
2022-09-10T13:28:44.215Z,17.10
2022-09-10T13:29:56.548Z,15.90
2022-09-10T13:31:09.239Z,17.90
2022-09-10T13:32:34.631Z,14.20
2022-09-10T13:33:52.618Z,16.10
2022-09-10T13:35:07.939Z,15.50
2022-09-10T13:36:18.159Z,15.50
2022-09-10T13:37:25.149Z,15.60
2022-09-10T13:38:53.932Z,15.60
2022-09-10T13:40:29.040Z,15.90
2022-09-10T13:41:37.875Z,12.60
2022-09-10T13:42:53.015Z,15.80
2022-09-10T13:44:36.393Z,16.70
2022-09-10T13:45:49.224Z,14.50
2022-09-10T13:46:54.361Z,16.10
2022-09-10T13:48:02.979Z,12.40
2022-09-10T13:49:26.839Z,7.70
2022-09-10T13:50:37.018Z,15.30
2022-09-10T13:51:51.751Z,16.60
2022-09-10T13:52:55.516Z,15.50
2022-09-10T13:54:01.385Z,15.40
2022-09-10T13:55:05.478Z,15.00
2022-09-10T13:56:14.522Z,13.80
2022-09-10T13:57:29.686Z,15.10
2022-09-10T13:58:38.840Z,16.60
2022-09-10T13:59:41.551Z,16.20
2022-09-10T14:02:01.337Z,15.20
2022-09-10T14:03:07.864Z,14.30
2022-09-10T14:05:56.812Z,13.90
2022-09-10T14:07:05.955Z,15.70
2022-09-10T14:08:26.267Z,16.10
2022-09-10T14:09:28.432Z,15.10
2022-09-10T14:10:35.293Z,15.00
2022-09-10T14:11:38.287Z,16.10
2022-09-10T14:12:41.331Z,14.70
2022-09-10T14:15:06.367Z,14.80
2022-09-10T14:16:11.238Z,16.50
2022-09-10T14:17:19.562Z,14.00
2022-09-10T14:18:23.155Z,13.80
2022-09-10T14:20:42.735Z,14.20
2022-09-10T14:21:49.705Z,13.70
2022-09-10T14:22:53.237Z,13.70
2022-09-10T14:23:56.492Z,13.20
2022-09-10T14:25:01.654Z,13.80
2022-09-10T14:27:33.649Z,15.50
2022-09-10T14:28:39.148Z,13.50
2022-09-10T14:29:41.686Z,13.90
2022-09-10T14:30:46.378Z,12.70
2022-09-10T14:31:48.861Z,12.60
2022-09-10T14:32:51.910Z,14.50
2022-09-10T14:35:42.683Z,13.60
2022-09-10T14:36:46.838Z,13.50
2022-09-10T14:37:50.920Z,12.40
2022-09-10T14:38:58.774Z,13.80
2022-09-10T14:40:03.160Z,14.00
2022-09-10T14:41:27.063Z,15.90
2022-09-10T14:42:33.639Z,13.50
2022-09-10T14:43:37.268Z,14.50
2022-09-10T14:44:40.810Z,14.70
2022-09-10T14:45:45.088Z,13.80
2022-09-10T14:46:56.002Z,13.60
2022-09-10T14:47:58.382Z,12.70
2022-09-10T14:49:02.889Z,12.80
2022-09-10T14:50:27.821Z,11.90
2022-09-10T14:51:30.082Z,13.30
2022-09-10T14:52:32.276Z,10.30
2022-09-10T14:53:34.447Z,12.80
2022-09-10T14:54:36.539Z,11.70
2022-09-10T14:55:38.899Z,12.60
2022-09-10T14:56:42.981Z,11.80
2022-09-10T14:57:47.233Z,12.60
2022-09-10T14:59:04.422Z,12.70
2022-09-10T15:01:22.552Z,13.50
2022-09-10T15:02:26.705Z,9.50
2022-09-10T15:03:34.613Z,8.50
2022-09-10T15:04:37.626Z,10.10
2022-09-10T15:05:40.939Z,10.73
2022-09-10T15:06:44.331Z,11.73
2022-09-10T15:07:46.472Z,12.10
2022-09-10T15:08:49.163Z,10.70
2022-09-10T15:09:52.262Z,11.60
2022-09-10T15:10:54.749Z,11.40
2022-09-10T15:11:59.512Z,11.60
2022-09-10T15:13:02.741Z,9.70
2022-09-10T15:14:09.191Z,13.40
2022-09-10T15:15:17.018Z,12.80
2022-09-10T15:16:19.237Z,12.20
2022-09-10T15:17:23.737Z,12.20
2022-09-10T15:18:25.880Z,12.73
2022-09-10T15:19:29.200Z,12.30
2022-09-10T15:20:31.423Z,12.70
2022-09-10T15:21:33.815Z,12.70
2022-09-10T15:22:36.447Z,13.50
2022-09-10T15:23:40.651Z,13.80
2022-09-10T15:25:08.115Z,14.40
2022-09-10T15:25:49.312Z,13.30
2022-09-10T15:26:51.862Z,12.50
2022-09-10T15:27:54.212Z,13.60
2022-09-10T15:28:56.269Z,13.10
2022-09-10T15:30:07.937Z,13.40
2022-09-10T15:31:10.587Z,12.70
2022-09-10T15:32:13.847Z,12.50
2022-09-10T15:33:18.469Z,11.70
2022-09-10T15:34:21.588Z,10.70
2022-09-10T15:35:25.339Z,12.90
2022-09-10T15:36:28.927Z,13.20
2022-09-10T15:37:33.169Z,13.00
2022-09-10T15:38:35.330Z,12.50
2022-09-10T15:39:37.460Z,11.80
2022-09-10T15:40:41.737Z,12.90
2022-09-10T15:41:44.904Z,11.20
2022-09-10T15:42:47.571Z,12.00
2022-09-10T15:43:49.810Z,13.36